createdAt,value
2019-06-26T00:01:15.427Z,10.70
2019-06-26T00:03:44.366Z,10.60
2019-06-26T00:06:13.382Z,10.73
2019-06-26T00:08:51.667Z,11.73
2019-06-26T00:11:20.682Z,11.33
2019-06-26T00:13:49.819Z,11.10
2019-06-26T00:16:18.762Z,11.37
2019-06-26T00:18:47.673Z,11.30
2019-06-26T00:21:16.669Z,11.50
2019-06-26T00:23:45.528Z,12.40
2019-06-26T00:26:14.379Z,13.20
2019-06-26T00:28:52.534Z,12.93
2019-06-26T00:31:21.549Z,13.90
2019-06-26T00:33:50.512Z,14.00
2019-06-26T00:36:19.653Z,13.67
2019-06-26T00:38:57.827Z,13.30
2019-06-26T00:41:27.014Z,12.23
2019-06-26T00:43:56.114Z,11.83
2019-06-26T00:46:25.161Z,12.20
2019-06-26T00:49:03.047Z,12.53
2019-06-26T00:51:32.003Z,13.50
2019-06-26T00:54:00.922Z,13.83
2019-06-26T00:56:29.824Z,13.90
2019-06-26T00:58:58.680Z,14.10
2019-06-26T01:01:27.580Z,13.20
2019-06-26T01:03:59.700Z,13.50
2019-06-26T01:06:53.915Z,13.53
2019-06-26T01:09:32.037Z,14.30
2019-06-26T01:12:01.053Z,14.03
2019-06-26T01:14:30.137Z,13.23
2019-06-26T01:16:59.398Z,14.07
2019-06-26T01:19:37.730Z,14.27
2019-06-26T01:22:06.647Z,13.87
2019-06-26T01:24:35.617Z,14.47
2019-06-26T01:27:04.801Z,13.73
2019-06-26T01:29:43.115Z,13.63
2019-06-26T01:32:12.106Z,14.13
2019-06-26T01:34:41.109Z,14.00
2019-06-26T01:37:10.670Z,14.73
2019-06-26T01:39:48.873Z,13.53
2019-06-26T01:42:17.974Z,13.23
2019-06-26T01:44:50.074Z,14.43
2019-06-26T01:47:31.203Z,14.00
2019-06-26T01:50:00.325Z,14.27
2019-06-26T01:52:29.390Z,13.23
2019-06-26T01:54:58.367Z,14.50
2019-06-26T01:57:39.626Z,13.27
2019-06-26T02:00:09.598Z,14.47
2019-06-26T02:02:38.678Z,15.23
2019-06-26T02:05:08.532Z,13.97
2019-06-26T02:07:47.177Z,14.07
2019-06-26T02:10:16.681Z,13.67
2019-06-26T02:12:45.655Z,14.73
2019-06-26T02:15:14.916Z,13.93
2019-06-26T02:17:53.261Z,14.13
2019-06-26T02:20:22.304Z,14.60
2019-06-26T02:22:51.730Z,15.30
2019-06-26T02:25:20.866Z,15.53
2019-06-26T02:27:59.006Z,14.33
2019-06-26T02:30:27.974Z,13.30
2019-06-26T02:32:56.967Z,14.70
2019-06-26T02:35:26.064Z,14.37
2019-06-26T02:38:04.611Z,15.90
2019-06-26T02:40:33.763Z,14.60
2019-06-26T02:43:06.696Z,15.93
2019-06-26T02:45:33.832Z,14.67
2019-06-26T02:48:12.153Z,15.83
2019-06-26T02:50:41.174Z,15.63
2019-06-26T02:53:10.205Z,15.77
2019-06-26T02:55:39.395Z,16.13
2019-06-26T02:58:18.000Z,14.80
2019-06-26T03:00:47.160Z,16.23
2019-06-26T03:03:17.819Z,15.17
2019-06-26T03:05:46.690Z,14.40
2019-06-26T03:08:26.799Z,14.90
2019-06-26T03:10:57.812Z,15.07
2019-06-26T03:13:27.571Z,15.70
2019-06-26T03:15:56.521Z,15.03
2019-06-26T03:18:34.754Z,15.37
2019-06-26T03:21:05.869Z,15.23
2019-06-26T03:23:34.882Z,14.40
2019-06-26T03:26:03.931Z,14.30
2019-06-26T03:28:43.168Z,14.40
2019-06-26T03:31:12.220Z,14.43
2019-06-26T03:33:41.313Z,14.47
2019-06-26T03:36:10.343Z,13.60
2019-06-26T03:38:49.562Z,15.57
2019-06-26T03:41:18.621Z,15.17
2019-06-26T03:43:47.661Z,15.37
2019-06-26T03:46:16.627Z,14.93
2019-06-26T03:48:54.732Z,14.00
2019-06-26T03:51:23.741Z,15.37
2019-06-26T03:53:52.658Z,15.17
2019-06-26T03:56:21.671Z,15.03
2019-06-26T03:59:00.027Z,15.57
2019-06-26T04:01:28.991Z,13.87
2019-06-26T04:03:58.105Z,15.00
2019-06-26T04:06:27.228Z,15.57
2019-06-26T04:09:06.743Z,15.43
2019-06-26T04:11:35.719Z,15.40
2019-06-26T04:14:04.908Z,15.10
2019-06-26T04:16:34.054Z,15.53
2019-06-26T04:19:12.904Z,14.70
2019-06-26T04:21:41.999Z,14.67
2019-06-26T04:24:11.139Z,15.27
2019-06-26T04:26:40.143Z,16.67
2019-06-26T04:29:18.133Z,15.80
2019-06-26T04:31:47.220Z,16.33
2019-06-26T04:34:16.193Z,17.00
2019-06-26T04:36:45.144Z,16.10
2019-06-26T04:39:23.484Z,16.60
2019-06-26T04:41:52.741Z,16.70
2019-06-26T04:44:21.626Z,16.97
2019-06-26T04:46:50.650Z,16.40
2019-06-26T04:49:28.766Z,15.87
2019-06-26T04:51:57.773Z,15.80
2019-06-26T04:54:27.640Z,15.80
2019-06-26T04:56:56.693Z,15.77
2019-06-26T04:59:39.149Z,16.53
2019-06-26T05:02:09.017Z,16.37
2019-06-26T05:04:38.411Z,15.70
2019-06-26T05:07:07.361Z,16.10
2019-06-26T05:09:46.694Z,16.17
2019-06-26T05:12:15.978Z,15.00
2019-06-26T05:14:48.046Z,16.33
2019-06-26T05:17:18.227Z,15.97
2019-06-26T05:19:58.641Z,16.97
2019-06-26T05:22:27.541Z,16.23
2019-06-26T05:24:56.625Z,16.07
2019-06-26T05:27:25.707Z,16.17
2019-06-26T05:30:04.419Z,15.87
2019-06-26T05:32:40.590Z,15.27
2019-06-26T05:35:10.832Z,16.13
2019-06-26T05:37:41.523Z,15.63
2019-06-26T05:40:21.241Z,13.60
2019-06-26T05:42:50.296Z,14.80
2019-06-26T05:45:19.554Z,15.77
2019-06-26T05:47:49.973Z,14.87
2019-06-26T05:50:28.837Z,15.03
2019-06-26T05:52:57.780Z,15.00
2019-06-26T05:55:26.904Z,13.73
2019-06-26T05:57:56.145Z,14.57
2019-06-26T06:00:34.346Z,13.67
2019-06-26T06:03:03.435Z,14.60
2019-06-26T06:05:32.642Z,13.67
2019-06-26T06:08:01.781Z,14.37
2019-06-26T06:10:39.849Z,13.93
2019-06-26T06:13:08.972Z,12.63
2019-06-26T06:15:38.035Z,13.25
2019-06-26T06:18:07.034Z,12.63
2019-06-26T06:20:44.972Z,13.00
2019-06-26T06:23:13.940Z,12.70
2019-06-26T06:25:42.954Z,13.13
2019-06-26T06:28:13.210Z,13.33
2019-06-26T06:30:51.093Z,12.07
2019-06-26T06:33:20.129Z,12.37
2019-06-26T06:35:49.260Z,12.20
2019-06-26T06:38:18.166Z,13.03
2019-06-26T06:40:50.023Z,14.15
2019-06-26T06:43:19.018Z,13.35
2019-06-26T06:45:48.101Z,13.98
2019-06-26T06:48:17.400Z,13.10
2019-06-26T06:50:55.837Z,12.70
2019-06-26T06:53:25.263Z,13.60
2019-06-26T06:55:54.279Z,14.20
2019-06-26T06:58:23.639Z,12.40
2019-06-26T07:01:03.148Z,13.75
2019-06-26T07:03:32.529Z,12.45
2019-06-26T07:06:01.733Z,12.90
2019-06-26T07:08:30.820Z,12.73
2019-06-26T07:11:12.376Z,12.18
2019-06-26T07:13:41.689Z,12.28
2019-06-26T07:16:10.946Z,12.07
2019-06-26T07:18:40.694Z,13.00
2019-06-26T07:21:19.224Z,12.70
2019-06-26T07:23:48.498Z,11.88
2019-06-26T07:26:23.275Z,12.82
2019-06-26T07:28:52.336Z,12.75
2019-06-26T07:31:30.426Z,12.20
2019-06-26T07:33:59.811Z,11.18
2019-06-26T07:36:28.876Z,11.80
2019-06-26T07:39:00.700Z,10.90
2019-06-26T07:41:29.912Z,12.13
2019-06-26T07:43:58.867Z,11.83
2019-06-26T07:46:27.914Z,11.12
2019-06-26T07:48:59.736Z,11.88
2019-06-26T07:51:37.875Z,10.03
2019-06-26T07:54:06.951Z,11.22
2019-06-26T07:56:35.975Z,10.65
2019-06-26T07:59:05.172Z,11.38
2019-06-26T08:01:43.548Z,11.05
2019-06-26T08:04:13.306Z,10.60
2019-06-26T08:06:42.511Z,10.63
2019-06-26T08:09:11.661Z,10.95
2019-06-26T08:11:50.081Z,10.18
2019-06-26T08:14:22.246Z,9.33
2019-06-26T08:16:51.340Z,9.15
2019-06-26T08:19:20.491Z,10.85
2019-06-26T08:21:58.766Z,9.78
2019-06-26T08:24:27.707Z,10.03
2019-06-26T08:26:56.700Z,10.20
2019-06-26T08:29:28.964Z,9.95
2019-06-26T08:31:57.942Z,9.65
2019-06-26T08:34:27.022Z,9.50
2019-06-26T08:36:58.902Z,9.48
2019-06-26T08:39:28.227Z,9.90
2019-06-26T08:42:06.666Z,9.45
2019-06-26T08:44:35.802Z,8.68
2019-06-26T08:47:04.940Z,9.13
2019-06-26T08:49:34.647Z,8.10
2019-06-26T08:52:03.899Z,8.50
2019-06-26T08:54:33.005Z,6.72
2019-06-26T08:57:02.309Z,7.67
2019-06-26T08:59:31.443Z,7.55
2019-06-26T09:02:12.856Z,7.95
2019-06-26T09:04:41.985Z,7.15
2019-06-26T09:07:10.963Z,7.10
2019-06-26T09:09:40.250Z,7.72
2019-06-26T09:12:19.111Z,7.78
2019-06-26T09:14:48.219Z,7.55
2019-06-26T09:17:17.465Z,7.80
2019-06-26T09:20:02.088Z,7.35
2019-06-26T09:22:31.172Z,8.43
2019-06-26T09:25:00.207Z,7.45
2019-06-26T09:27:29.196Z,6.65
2019-06-26T09:30:07.524Z,10.23
2019-06-26T09:32:36.621Z,6.55
2019-06-26T09:35:06.297Z,6.28
2019-06-26T09:37:35.472Z,6.42
2019-06-26T09:40:13.821Z,6.45
2019-06-26T09:42:42.852Z,6.12
2019-06-26T09:45:11.989Z,6.08
2019-06-26T09:47:41.170Z,5.87
2019-06-26T09:50:19.736Z,6.37
2019-06-26T09:52:48.769Z,5.40
2019-06-26T09:55:17.922Z,5.40
2019-06-26T09:57:46.937Z,5.12
2019-06-26T10:00:28.450Z,5.25
2019-06-26T10:02:57.467Z,4.80
2019-06-26T10:05:26.744Z,4.87
2019-06-26T10:07:55.705Z,4.12
2019-06-26T10:10:34.025Z,4.60
2019-06-26T10:13:03.469Z,4.28
2019-06-26T10:15:33.284Z,4.50
2019-06-26T10:18:02.343Z,4.40
2019-06-26T10:20:40.458Z,4.67
2019-06-26T10:23:09.613Z,4.50
2019-06-26T10:25:38.716Z,4.65
2019-06-26T10:28:07.787Z,4.42
2019-06-26T10:30:45.945Z,4.90
2019-06-26T10:33:15.251Z,4.50
2019-06-26T10:35:44.428Z,4.33
2019-06-26T10:38:13.446Z,4.10
2019-06-26T10:40:52.096Z,4.15
2019-06-26T10:43:21.144Z,3.77
2019-06-26T10:45:50.423Z,3.77
2019-06-26T10:48:19.395Z,3.75
2019-06-26T10:50:59.026Z,4.20
2019-06-26T10:53:31.359Z,4.28
2019-06-26T10:56:00.655Z,3.77
2019-06-26T10:58:29.676Z,3.75
2019-06-26T11:01:09.814Z,4.00
2019-06-26T11:03:38.861Z,4.05
2019-06-26T11:06:07.981Z,4.30
2019-06-26T11:08:37.048Z,4.40
2019-06-26T11:11:15.660Z,4.22
2019-06-26T11:13:44.658Z,4.30
2019-06-26T11:16:13.885Z,4.05
2019-06-26T11:18:42.946Z,3.95
2019-06-26T11:21:21.297Z,4.15
2019-06-26T11:23:50.385Z,3.87
2019-06-26T11:26:19.560Z,3.72
2019-06-26T11:28:48.574Z,4.45
2019-06-26T11:31:29.788Z,4.08
2019-06-26T11:33:58.811Z,4.12
2019-06-26T11:36:27.935Z,4.20
2019-06-26T11:38:57.119Z,4.58
2019-06-26T11:41:35.652Z,4.15
2019-06-26T11:44:05.533Z,5.10
2019-06-26T11:46:36.939Z,4.30
2019-06-26T11:49:05.541Z,3.62
2019-06-26T11:51:43.963Z,4.30
2019-06-26T11:54:16.045Z,4.50
2019-06-26T11:56:45.443Z,3.90
2019-06-26T11:59:14.857Z,4.10
2019-06-26T12:01:53.288Z,4.00
2019-06-26T12:04:22.465Z,4.03
2019-06-26T12:06:51.571Z,4.05
2019-06-26T12:09:20.665Z,4.47
2019-06-26T12:11:59.202Z,4.15
2019-06-26T12:14:29.079Z,4.35
2019-06-26T12:16:58.138Z,4.42
2019-06-26T12:19:27.278Z,4.20
2019-06-26T12:22:07.473Z,4.30
2019-06-26T12:24:36.418Z,4.10
2019-06-26T12:27:08.064Z,4.67
2019-06-26T12:29:37.073Z,4.40
2019-06-26T12:32:15.431Z,3.58
2019-06-26T12:34:45.417Z,3.60
2019-06-26T12:37:14.561Z,3.60
2019-06-26T12:39:43.655Z,4.20
2019-06-26T12:42:22.098Z,4.03
2019-06-26T12:44:52.924Z,4.22
2019-06-26T12:47:22.037Z,3.90
2019-06-26T12:49:51.242Z,3.72
2019-06-26T12:52:30.439Z,4.25
2019-06-26T12:54:59.683Z,3.90
2019-06-26T12:57:28.772Z,4.50
2019-06-26T13:00:00.910Z,4.35
2019-06-26T13:02:38.983Z,4.00
2019-06-26T13:05:08.157Z,4.00
2019-06-26T13:07:37.301Z,4.15
2019-06-26T13:10:07.707Z,4.62
2019-06-26T13:12:47.117Z,4.40
2019-06-26T13:15:16.565Z,4.62
2019-06-26T13:17:45.695Z,4.65
2019-06-26T13:20:14.889Z,4.35
2019-06-26T13:22:52.999Z,4.30
2019-06-26T13:25:22.112Z,4.00
2019-06-26T13:27:51.171Z,4.12
2019-06-26T13:30:33.631Z,4.25
2019-06-26T13:33:13.138Z,4.30
2019-06-26T13:35:42.190Z,4.47
2019-06-26T13:38:11.298Z,4.50
2019-06-26T13:40:41.156Z,4.08
2019-06-26T13:43:10.483Z,4.08
2019-06-26T13:45:39.632Z,4.60
2019-06-26T13:48:08.749Z,4.22
2019-06-26T13:50:38.249Z,4.60
2019-06-26T13:53:17.574Z,4.05
2019-06-26T13:55:46.651Z,4.37
2019-06-26T13:58:15.638Z,4.78
2019-06-26T14:00:44.638Z,4.37
2019-06-26T14:03:22.893Z,4.50
2019-06-26T14:05:51.941Z,4.20
2019-06-26T14:08:20.853Z,3.90
2019-06-26T14:10:49.957Z,4.45
2019-06-26T14:13:28.372Z,4.17
2019-06-26T14:15:57.610Z,4.30
2019-06-26T14:18:30.313Z,3.92
2019-06-26T14:20:58.005Z,4.70
2019-06-26T14:23:37.965Z,4.53
2019-06-26T14:26:07.238Z,4.53
2019-06-26T14:28:36.537Z,3.98
2019-06-26T14:31:17.705Z,4.20
2019-06-26T14:33:56.018Z,4.37
2019-06-26T14:36:28.099Z,4.17
2019-06-26T14:38:57.209Z,4.03
2019-06-26T14:41:26.187Z,4.08
2019-06-26T14:44:04.770Z,4.42
2019-06-26T14:46:33.901Z,4.35
2019-06-26T14:49:03.647Z,4.30
2019-06-26T14:51:43.822Z,3.98
2019-06-26T14:54:14.423Z,4.10
2019-06-26T14:56:43.427Z,4.30
2019-06-26T14:59:14.178Z,4.15
2019-06-26T15:01:43.530Z,3.72
2019-06-26T15:04:22.354Z,4.47
2019-06-26T15:06:51.477Z,3.90
2019-06-26T15:09:20.502Z,3.52
2019-06-26T15:11:51.595Z,3.90
2019-06-26T15:14:29.785Z,3.90
2019-06-26T15:16:58.938Z,4.15
2019-06-26T15:19:28.157Z,5.05
2019-06-26T15:21:58.908Z,3.77
2019-06-26T15:24:28.142Z,3.77
2019-06-26T15:26:57.307Z,4.37
2019-06-26T15:29:26.508Z,4.53
2019-06-26T15:31:57.150Z,4.00
2019-06-26T15:34:36.277Z,3.90
2019-06-26T15:37:05.540Z,4.10
2019-06-26T15:39:34.680Z,4.00
2019-06-26T15:42:03.977Z,4.10
2019-06-26T15:44:42.509Z,3.80
2019-06-26T15:47:12.630Z,3.70
2019-06-26T15:49:41.883Z,4.08
2019-06-26T15:52:15.359Z,4.30
2019-06-26T15:54:53.077Z,4.35
2019-06-26T15:57:22.559Z,3.95
2019-06-26T15:59:51.576Z,3.98
2019-06-26T16:02:35.953Z,4.30
2019-06-26T16:05:08.100Z,4.42
2019-06-26T16:07:37.460Z,4.20
2019-06-26T16:10:06.645Z,4.33
2019-06-26T16:12:44.900Z,4.22
2019-06-26T16:15:14.197Z,4.92
2019-06-26T16:17:55.387Z,4.17
2019-06-26T16:20:24.698Z,4.33
2019-06-26T16:23:03.313Z,4.55
2019-06-26T16:25:32.513Z,4.42
2019-06-26T16:28:05.791Z,4.60
2019-06-26T16:30:35.655Z,13.00
2019-06-26T16:33:14.001Z,22.80
2019-06-26T16:35:43.008Z,5.80
2019-06-26T16:38:12.079Z,4.45
2019-06-26T16:40:41.209Z,12.82
2019-06-26T16:43:19.607Z,4.62
2019-06-26T16:45:48.904Z,4.70
2019-06-26T16:48:18.478Z,4.37
2019-06-26T16:50:50.343Z,4.75
2019-06-26T16:53:29.528Z,4.53
2019-06-26T16:55:58.721Z,4.47
2019-06-26T16:58:28.100Z,4.58
2019-06-26T17:00:58.779Z,5.60
2019-06-26T17:03:40.439Z,4.95
2019-06-26T17:06:09.716Z,9.23
2019-06-26T17:08:38.799Z,4.50
2019-06-26T17:11:08.106Z,4.25
2019-06-26T17:13:46.645Z,4.60
2019-06-26T17:16:15.829Z,7.87
2019-06-26T17:18:45.010Z,5.28
2019-06-26T17:21:14.592Z,4.55
2019-06-26T17:23:52.992Z,4.22
2019-06-26T17:26:22.253Z,4.92
2019-06-26T17:28:53.346Z,4.75
2019-06-26T17:31:22.615Z,4.42
2019-06-26T17:34:00.913Z,4.47
2019-06-26T17:36:29.959Z,5.08
2019-06-26T17:38:59.013Z,4.47
2019-06-26T17:41:28.382Z,4.45
2019-06-26T17:44:06.474Z,4.35
2019-06-26T17:46:35.977Z,4.67
2019-06-26T17:49:05.398Z,4.67
2019-06-26T17:51:35.038Z,4.67
2019-06-26T17:54:13.264Z,4.85
2019-06-26T17:56:42.301Z,4.40
2019-06-26T17:59:11.454Z,4.28
2019-06-26T18:01:40.942Z,4.85
2019-06-26T18:04:22.670Z,5.00
2019-06-26T18:06:52.162Z,4.70
2019-06-26T18:09:21.316Z,4.78
2019-06-26T18:11:52.991Z,4.83
2019-06-26T18:14:31.397Z,4.67
2019-06-26T18:17:00.839Z,4.97
2019-06-26T18:19:30.033Z,4.45
2019-06-26T18:21:59.052Z,5.45
2019-06-26T18:24:37.421Z,4.80
2019-06-26T18:27:06.752Z,5.17
2019-06-26T18:29:35.745Z,4.92
2019-06-26T18:32:04.931Z,5.17
2019-06-26T18:34:46.031Z,4.22
2019-06-26T18:37:14.183Z,4.45
2019-06-26T18:39:43.408Z,5.00
2019-06-26T18:42:12.745Z,5.28
2019-06-26T18:44:50.869Z,4.40
2019-06-26T18:47:19.978Z,5.37
2019-06-26T18:49:49.139Z,5.05
2019-06-26T18:52:20.094Z,5.37
2019-06-26T18:54:58.625Z,4.92
2019-06-26T18:57:29.556Z,10.05
2019-06-26T18:59:58.707Z,5.25
2019-06-26T19:02:27.896Z,5.60
2019-06-26T19:05:06.599Z,5.08
2019-06-26T19:07:35.735Z,5.00
2019-06-26T19:10:07.050Z,5.37
2019-06-26T19:12:36.545Z,4.95
2019-06-26T19:15:15.103Z,5.50
2019-06-26T19:17:45.016Z,5.50
2019-06-26T19:20:15.177Z,5.90
2019-06-26T19:22:47.454Z,5.58
2019-06-26T19:25:25.489Z,5.10
2019-06-26T19:27:54.637Z,5.30
2019-06-26T19:30:25.475Z,5.45
2019-06-26T19:32:54.648Z,5.25
2019-06-26T19:35:34.572Z,5.92
2019-06-26T19:38:04.396Z,5.60
2019-06-26T19:40:34.284Z,5.37
2019-06-26T19:43:10.847Z,5.42
2019-06-26T19:45:48.611Z,5.85
2019-06-26T19:48:18.760Z,5.67
2019-06-26T19:50:48.579Z,5.60
2019-06-26T19:53:18.340Z,6.40
2019-06-26T19:55:57.935Z,5.75
2019-06-26T19:58:30.372Z,5.42
2019-06-26T20:01:03.850Z,4.97
2019-06-26T20:03:34.087Z,6.22
2019-06-26T20:06:12.995Z,5.60
2019-06-26T20:08:52.213Z,5.25
2019-06-26T20:11:14.598Z,5.75
2019-06-26T20:13:44.377Z,5.78
2019-06-26T20:19:18.902Z,5.22
2019-06-26T20:21:49.423Z,5.53
2019-06-26T20:24:42.793Z,5.95
2019-06-26T20:27:03.061Z,5.95
2019-06-26T20:29:32.819Z,7.08
2019-06-26T20:32:02.593Z,7.08
2019-06-26T20:34:41.231Z,8.95
2019-06-26T20:37:11.592Z,7.10
2019-06-26T20:39:42.926Z,7.05
2019-06-26T20:42:13.899Z,7.55
2019-06-26T20:44:51.878Z,6.95
2019-06-26T20:47:20.882Z,7.03
2019-06-26T20:49:53.505Z,7.83
2019-06-26T20:52:21.285Z,7.60
2019-06-26T20:55:02.096Z,7.78
2019-06-26T20:57:30.176Z,7.90
2019-06-26T20:59:59.347Z,6.78
2019-06-26T21:02:28.430Z,7.60
2019-06-26T21:05:06.643Z,7.37
2019-06-26T21:07:35.912Z,7.10
2019-06-26T21:10:05.315Z,7.58
2019-06-26T21:12:34.507Z,8.13
2019-06-26T21:15:15.332Z,6.97
2019-06-26T21:18:05.394Z,6.60
2019-06-26T21:20:34.840Z,8.03
2019-06-26T21:23:04.103Z,8.23
2019-06-26T21:25:42.358Z,7.83
2019-06-26T21:28:11.649Z,7.47
2019-06-26T21:30:41.142Z,7.20
2019-06-26T21:33:10.449Z,8.03
2019-06-26T21:35:49.056Z,7.30
2019-06-26T21:38:18.333Z,7.45
2019-06-26T21:40:47.578Z,7.67
2019-06-26T21:43:16.976Z,7.58
2019-06-26T21:45:55.757Z,6.90
2019-06-26T21:48:25.590Z,7.37
2019-06-26T21:50:57.545Z,7.78
2019-06-26T21:53:27.295Z,7.95
2019-06-26T21:56:05.859Z,7.40
2019-06-26T21:58:35.357Z,7.53
2019-06-26T22:01:04.705Z,7.10
2019-06-26T22:03:34.132Z,7.42
2019-06-26T22:06:12.619Z,7.45
2019-06-26T22:08:41.618Z,8.33
2019-06-26T22:11:10.953Z,7.92
2019-06-26T22:13:40.094Z,7.92
2019-06-26T22:19:14.684Z,8.55
2019-06-26T22:21:45.784Z,8.15
2019-06-26T22:24:14.874Z,8.03
2019-06-26T22:26:54.434Z,8.08
2019-06-26T22:29:23.508Z,7.78
2019-06-26T22:31:56.144Z,8.48
2019-06-26T22:34:27.845Z,8.40
2019-06-26T22:37:06.689Z,8.60
2019-06-26T22:39:35.789Z,9.10
2019-06-26T22:42:05.287Z,8.20
2019-06-26T22:44:34.275Z,8.18
2019-06-26T22:47:13.384Z,7.92
2019-06-26T22:49:42.534Z,8.23
2019-06-26T22:52:11.630Z,9.38
2019-06-26T22:54:41.611Z,8.08
2019-06-26T22:57:19.996Z,8.65
2019-06-26T22:59:49.084Z,8.70
2019-06-26T23:02:18.161Z,9.38
2019-06-26T23:04:48.645Z,8.63
2019-06-26T23:07:27.622Z,8.63
2019-06-26T23:09:59.325Z,8.68
2019-06-26T23:12:28.434Z,8.25
2019-06-26T23:14:57.718Z,8.33
2019-06-26T23:17:35.742Z,9.00
2019-06-26T23:20:05.503Z,8.50
2019-06-26T23:22:43.824Z,8.18
2019-06-26T23:25:13.750Z,8.83
2019-06-26T23:27:43.067Z,7.53
2019-06-26T23:30:18.080Z,8.25
2019-06-26T23:32:56.576Z,7.58
2019-06-26T23:35:25.621Z,7.78
2019-06-26T23:37:54.807Z,7.95
2019-06-26T23:40:23.788Z,9.05
2019-06-26T23:43:02.662Z,8.58
2019-06-26T23:45:31.655Z,8.50
2019-06-26T23:48:00.660Z,8.33
2019-06-26T23:50:29.668Z,8.38
2019-06-26T23:53:07.766Z,8.35
2019-06-26T23:55:36.771Z,7.97
2019-06-26T23:58:06.001Z,8.60
